createdAt,value
2022-09-09T00:01:25.040Z,92325.66
2022-09-09T00:04:01.847Z,92322.16
2022-09-09T00:06:46.481Z,92320.94
2022-09-09T00:09:21.472Z,92317.97
2022-09-09T00:12:01.695Z,92326.75
2022-09-09T00:14:40.544Z,92318.84
2022-09-09T00:17:29.315Z,92313.47
2022-09-09T00:20:11.727Z,92307.31
2022-09-09T00:22:51.833Z,92299.09
2022-09-09T00:25:33.596Z,92284.59
2022-09-09T00:28:14.615Z,92280.53
2022-09-09T00:30:48.488Z,92278.13
2022-09-09T00:33:24.026Z,92272.28
2022-09-09T00:35:59.116Z,92268.13
2022-09-09T00:38:35.590Z,92269.31
2022-09-09T00:41:15.338Z,92280.16
2022-09-09T00:44:11.412Z,92273.34
2022-09-09T00:46:57.541Z,92268.47
2022-09-09T00:49:46.810Z,92271.44
2022-09-09T00:52:30.878Z,92273.44
2022-09-09T00:55:12.373Z,92281.00
2022-09-09T00:57:46.542Z,92278.00
2022-09-09T01:00:22.951Z,92277.94
2022-09-09T01:03:11.323Z,92278.19
2022-09-09T01:05:47.747Z,92277.19
2022-09-09T01:08:42.667Z,92274.56
2022-09-09T01:11:22.256Z,92282.44
2022-09-09T01:13:59.610Z,92282.44
2022-09-09T01:16:34.515Z,92289.81
2022-09-09T01:19:11.147Z,92294.75
2022-09-09T01:21:50.867Z,92287.66
2022-09-09T01:24:32.856Z,92283.94
2022-09-09T01:27:36.575Z,92282.06
2022-09-09T01:30:12.094Z,92285.47
2022-09-09T01:32:45.946Z,92281.28
2022-09-09T01:35:33.477Z,92273.09
2022-09-09T01:38:07.927Z,92289.31
2022-09-09T01:40:40.605Z,92278.78
2022-09-09T01:43:14.122Z,92284.56
2022-09-09T01:45:50.130Z,92283.22
2022-09-09T01:48:24.259Z,92268.22
2022-09-09T01:51:08.959Z,92281.72
2022-09-09T01:53:42.528Z,92285.59
2022-09-09T01:56:32.447Z,92282.06
2022-09-09T01:59:10.309Z,92273.69
2022-09-09T02:01:59.742Z,92279.69
2022-09-09T02:04:38.781Z,92284.63
2022-09-09T02:07:32.848Z,92283.16
2022-09-09T02:10:11.955Z,92287.16
2022-09-09T02:12:51.725Z,92280.97
2022-09-09T02:15:31.009Z,92280.91
2022-09-09T02:18:09.254Z,92278.94
2022-09-09T02:20:43.950Z,92259.69
2022-09-09T02:23:17.525Z,92281.38
2022-09-09T02:25:55.613Z,92280.47
2022-09-09T02:28:32.459Z,92288.06
2022-09-09T02:31:06.526Z,92285.41
2022-09-09T02:33:48.242Z,92285.63
2022-09-09T02:36:23.963Z,92292.72
2022-09-09T02:38:57.323Z,92297.41
2022-09-09T02:41:36.045Z,92299.72
2022-09-09T02:44:11.701Z,92303.22
2022-09-09T02:47:06.465Z,92297.66
2022-09-09T02:49:50.197Z,92301.63
2022-09-09T02:52:33.983Z,92299.06
2022-09-09T02:55:14.654Z,92315.34
2022-09-09T02:57:50.021Z,92301.44
2022-09-09T03:00:25.568Z,92305.59
2022-09-09T03:02:59.260Z,92297.28
2022-09-09T03:05:32.454Z,92304.06
2022-09-09T03:08:06.181Z,92297.72
2022-09-09T03:10:38.706Z,92297.41
2022-09-09T03:13:11.375Z,92300.84
2022-09-09T03:15:45.718Z,92299.78
2022-09-09T03:18:23.411Z,92297.91
2022-09-09T03:20:59.763Z,92292.66
2022-09-09T03:23:32.538Z,92297.00
2022-09-09T03:26:08.808Z,92298.09
2022-09-09T03:28:46.751Z,92291.75
2022-09-09T03:31:23.043Z,92285.28
2022-09-09T03:33:58.395Z,92287.06
2022-09-09T03:36:33.123Z,92285.38
2022-09-09T03:39:05.572Z,92290.19
2022-09-09T03:41:38.515Z,92282.25
2022-09-09T03:44:12.104Z,92288.88
2022-09-09T03:46:47.152Z,92287.78
2022-09-09T03:49:20.506Z,92296.31
2022-09-09T03:51:53.581Z,92292.28
2022-09-09T03:54:26.218Z,92289.97
2022-09-09T03:56:58.661Z,92282.06
2022-09-09T03:59:31.445Z,92293.66
2022-09-09T04:02:04.378Z,92290.41
2022-09-09T04:04:37.393Z,92286.84
2022-09-09T04:07:10.274Z,92293.75
2022-09-09T04:09:42.618Z,92291.13
2022-09-09T04:12:15.007Z,92284.59
2022-09-09T04:14:47.891Z,92284.75
2022-09-09T04:17:20.283Z,92288.28
2022-09-09T04:19:53.317Z,92281.16
2022-09-09T04:22:25.679Z,92270.19
2022-09-09T04:24:58.166Z,92283.03
2022-09-09T04:27:31.010Z,92285.19
2022-09-09T04:30:04.146Z,92286.09
2022-09-09T04:32:38.275Z,92280.09
2022-09-09T04:35:11.241Z,92284.75
2022-09-09T04:37:44.539Z,92294.16
2022-09-09T04:40:17.164Z,92299.66
2022-09-09T04:42:49.986Z,92300.44
2022-09-09T04:45:22.550Z,92293.53
2022-09-09T04:47:55.301Z,92287.31
2022-09-09T04:50:28.959Z,92289.56
2022-09-09T04:53:05.581Z,92293.56
2022-09-09T04:55:38.482Z,92297.28
2022-09-09T04:58:11.507Z,92290.63
2022-09-09T05:00:44.815Z,92289.22
2022-09-09T05:03:17.148Z,92283.41
2022-09-09T05:05:50.363Z,92264.06
2022-09-09T05:08:23.173Z,92266.81
2022-09-09T05:10:55.578Z,92265.53
2022-09-09T05:13:28.175Z,92267.97
2022-09-09T05:16:00.770Z,92270.72
2022-09-09T05:18:33.239Z,92260.56
2022-09-09T05:21:06.802Z,92250.41
2022-09-09T05:23:39.478Z,92249.47
2022-09-09T05:26:17.505Z,92258.56
2022-09-09T05:28:51.838Z,92252.09
2022-09-09T05:31:27.205Z,92260.78
2022-09-09T05:33:59.791Z,92263.78
2022-09-09T05:36:32.928Z,92258.06
2022-09-09T05:39:05.356Z,92262.81
2022-09-09T05:41:39.226Z,92264.47
2022-09-09T05:44:11.902Z,92269.53
2022-09-09T05:46:45.459Z,92278.34
2022-09-09T05:49:18.965Z,92284.91
2022-09-09T05:51:52.087Z,92277.69
2022-09-09T05:54:25.955Z,92273.19
2022-09-09T05:57:00.463Z,92278.03
2022-09-09T05:59:32.897Z,92280.09
2022-09-09T06:02:06.426Z,92287.34
2022-09-09T06:04:42.107Z,92283.47
2022-09-09T06:07:15.219Z,92293.69
2022-09-09T06:09:47.695Z,92289.94
2022-09-09T06:12:21.186Z,92300.09
2022-09-09T06:14:53.550Z,92293.00
2022-09-09T06:17:25.927Z,92297.88
2022-09-09T06:19:58.591Z,92291.25
2022-09-09T06:22:31.793Z,92287.22
2022-09-09T06:25:04.839Z,92293.44
2022-09-09T06:27:37.321Z,92294.66
2022-09-09T06:30:11.554Z,92284.13
2022-09-09T06:32:43.968Z,92280.53
2022-09-09T06:35:16.430Z,92277.47
2022-09-09T06:37:49.536Z,92268.06
2022-09-09T06:40:23.561Z,92274.50
2022-09-09T06:43:00.760Z,92277.41
2022-09-09T06:45:45.333Z,92280.91
2022-09-09T06:48:18.074Z,92285.72
2022-09-09T06:50:50.462Z,92291.63
2022-09-09T06:53:24.331Z,92295.72
2022-09-09T06:55:56.623Z,92298.47
2022-09-09T06:58:29.719Z,92306.16
2022-09-09T07:01:05.164Z,92307.84
2022-09-09T07:03:38.590Z,92308.09
2022-09-09T07:06:17.235Z,92308.19
2022-09-09T07:08:56.653Z,92309.41
2022-09-09T07:11:34.439Z,92307.25
2022-09-09T07:14:07.326Z,92302.22
2022-09-09T07:16:40.605Z,92305.84
2022-09-09T07:19:14.732Z,92302.00
2022-09-09T07:21:48.043Z,92300.31
2022-09-09T07:24:24.855Z,92298.69
2022-09-09T07:26:57.881Z,92296.63
2022-09-09T07:29:30.744Z,92283.59
2022-09-09T07:32:04.583Z,92282.56
2022-09-09T07:34:40.992Z,92287.28
2022-09-09T07:37:13.732Z,92293.13
2022-09-09T07:39:50.004Z,92300.50
2022-09-09T07:42:23.740Z,92300.66
2022-09-09T07:44:56.046Z,92304.91
2022-09-09T07:47:28.559Z,92300.81
2022-09-09T07:50:00.974Z,92301.59
2022-09-09T07:52:37.093Z,92291.03
2022-09-09T07:55:12.698Z,92296.44
2022-09-09T07:57:45.282Z,92294.50
2022-09-09T08:00:18.550Z,92294.25
2022-09-09T08:02:56.338Z,92293.50
2022-09-09T08:05:28.982Z,92298.84
2022-09-09T08:08:03.467Z,92298.88
2022-09-09T08:10:37.683Z,92299.69
2022-09-09T08:13:17.867Z,92296.22
2022-09-09T08:15:51.500Z,92297.38
2022-09-09T08:18:24.673Z,92300.03
2022-09-09T08:20:56.993Z,92307.31
2022-09-09T08:23:30.244Z,92301.56
2022-09-09T08:26:12.531Z,92298.50
2022-09-09T08:28:44.882Z,92285.91
2022-09-09T08:31:19.560Z,92298.13
2022-09-09T08:33:53.397Z,92296.59
2022-09-09T08:36:29.139Z,92302.31
2022-09-09T08:39:01.758Z,92310.31
2022-09-09T08:41:55.191Z,92305.00
2022-09-09T08:44:38.402Z,92301.19
2022-09-09T08:47:19.839Z,92305.38
2022-09-09T08:50:08.775Z,92303.44
2022-09-09T08:52:52.088Z,92298.88
2022-09-09T08:55:37.887Z,92293.53
2022-09-09T08:58:15.151Z,92290.84
2022-09-09T09:01:29.920Z,92297.31
2022-09-09T09:04:15.601Z,92292.72
2022-09-09T09:06:58.975Z,92295.78
2022-09-09T09:09:41.683Z,92302.63
2022-09-09T09:12:18.951Z,92303.72
2022-09-09T09:14:52.222Z,92299.19
2022-09-09T09:17:29.943Z,92304.53
2022-09-09T09:20:07.062Z,92307.09
2022-09-09T09:22:47.914Z,92303.63
2022-09-09T09:25:24.619Z,92300.50
2022-09-09T09:28:00.962Z,92311.66
2022-09-09T09:30:40.516Z,92299.72
2022-09-09T09:33:21.592Z,92304.00
2022-09-09T09:35:54.651Z,92300.56
2022-09-09T09:41:33.387Z,92295.19
2022-09-09T09:44:07.718Z,92288.25
2022-09-09T09:46:41.974Z,92288.25
2022-09-09T09:49:18.051Z,92289.00
2022-09-09T09:51:52.557Z,92289.31
2022-09-09T09:54:29.421Z,92296.13
2022-09-09T09:57:10.789Z,92281.84
2022-09-09T09:59:43.581Z,92293.00
2022-09-09T10:02:26.924Z,92282.66
2022-09-09T10:05:13.779Z,92296.38
2022-09-09T10:08:01.599Z,92294.06
2022-09-09T10:10:47.425Z,92310.22
2022-09-09T10:13:27.926Z,92317.06
2022-09-09T10:16:15.165Z,92314.47
2022-09-09T10:18:59.640Z,92309.91
2022-09-09T10:21:52.887Z,92309.97
2022-09-09T10:24:45.071Z,92312.28
2022-09-09T10:27:23.213Z,92312.28
2022-09-09T10:30:09.063Z,92312.28
2022-09-09T10:32:53.336Z,92314.22
2022-09-09T10:35:30.515Z,92326.84
2022-09-09T10:38:18.163Z,92320.41
2022-09-09T10:41:11.958Z,92324.38
2022-09-09T10:44:11.712Z,92316.69
2022-09-09T10:47:01.856Z,92319.88
2022-09-09T10:49:53.052Z,92325.19
2022-09-09T10:52:33.606Z,92322.88
2022-09-09T10:55:14.583Z,92319.84
2022-09-09T10:57:49.102Z,92319.09
2022-09-09T11:00:23.620Z,92318.72
2022-09-09T11:02:57.786Z,92330.91
2022-09-09T11:05:36.638Z,92327.13
2022-09-09T11:08:15.860Z,92325.91
2022-09-09T11:10:59.995Z,92322.78
2022-09-09T11:13:36.710Z,92308.69
2022-09-09T11:16:20.343Z,92312.47
2022-09-09T11:18:58.390Z,92309.81
2022-09-09T11:21:35.065Z,92298.03
2022-09-09T11:24:14.699Z,92290.78
2022-09-09T11:26:53.208Z,92291.53
2022-09-09T11:30:27.208Z,92286.28
2022-09-09T11:33:38.285Z,92277.47
2022-09-09T11:36:32.209Z,92274.78
2022-09-09T11:39:34.007Z,92273.97
2022-09-09T11:42:08.207Z,92234.81
2022-09-09T11:44:42.812Z,92225.69
2022-09-09T11:47:26.884Z,92224.56
2022-09-09T11:50:26.953Z,92235.22
2022-09-09T11:53:23.184Z,92240.56
2022-09-09T11:56:09.475Z,92244.38
2022-09-09T11:58:45.475Z,92246.66
2022-09-09T12:01:38.295Z,92235.59
2022-09-09T12:04:33.860Z,92228.00
2022-09-09T12:07:28.100Z,92232.16
2022-09-09T12:10:05.556Z,92226.09
2022-09-09T12:12:43.865Z,92222.66
2022-09-09T12:15:28.411Z,92232.94
2022-09-09T12:18:03.558Z,92232.19
2022-09-09T12:20:37.830Z,92224.94
2022-09-09T12:23:33.487Z,92219.97
2022-09-09T12:26:28.000Z,92215.41
2022-09-09T12:29:12.656Z,92214.63
2022-09-09T12:31:52.000Z,92211.97
2022-09-09T12:34:38.000Z,92215.03
2022-09-09T12:37:18.535Z,92216.06
2022-09-09T12:39:55.812Z,92215.72
2022-09-09T12:42:28.668Z,92207.72
2022-09-09T12:45:06.692Z,92212.94
2022-09-09T12:47:44.166Z,92206.16
2022-09-09T12:50:19.612Z,92204.69
2022-09-09T12:52:54.362Z,92193.25
2022-09-09T12:55:31.257Z,92194.75
2022-09-09T12:58:06.287Z,92186.84
2022-09-09T13:00:52.389Z,92178.44
2022-09-09T13:03:25.542Z,92189.06
2022-09-09T13:06:00.578Z,92186.78
2022-09-09T13:08:33.021Z,92178.78
2022-09-09T13:11:10.969Z,92181.38
2022-09-09T13:13:44.016Z,92179.88
2022-09-09T13:16:27.208Z,92182.13
2022-09-09T13:19:01.113Z,92175.31
2022-09-09T13:21:35.661Z,92159.38
2022-09-09T13:24:27.682Z,92159.41
2022-09-09T13:27:02.453Z,92165.47
2022-09-09T13:29:35.077Z,92162.06
2022-09-09T13:32:17.224Z,92160.19
2022-09-09T13:34:53.226Z,92160.94
2022-09-09T13:37:31.697Z,92153.72
2022-09-09T13:40:06.119Z,92150.25
2022-09-09T13:42:42.878Z,92149.13
2022-09-09T13:45:20.726Z,92148.00
2022-09-09T13:47:55.621Z,92141.88
2022-09-09T13:50:29.501Z,92138.47
2022-09-09T13:53:01.811Z,92133.91
2022-09-09T13:55:34.227Z,92132.34
2022-09-09T13:58:06.546Z,92136.19
2022-09-09T14:00:40.023Z,92135.81
2022-09-09T14:03:14.033Z,92143.44
2022-09-09T14:05:46.744Z,92134.66
2022-09-09T14:08:27.353Z,92148.38
2022-09-09T14:10:59.811Z,92135.06
2022-09-09T14:13:32.138Z,92132.38
2022-09-09T14:16:04.953Z,92125.53
2022-09-09T14:18:39.292Z,92120.94
2022-09-09T14:21:11.923Z,92128.94
2022-09-09T14:23:44.215Z,92123.22
2022-09-09T14:26:16.551Z,92120.19
2022-09-09T14:28:57.940Z,92116.75
2022-09-09T14:31:30.610Z,92115.19
2022-09-09T14:34:03.606Z,92117.09
2022-09-09T14:36:35.947Z,92112.56
2022-09-09T14:39:08.454Z,92119.00
2022-09-09T14:41:40.802Z,92115.59
2022-09-09T14:44:13.168Z,92116.72
2022-09-09T14:46:45.503Z,92122.78
2022-09-09T14:49:18.517Z,92122.78
2022-09-09T14:51:50.857Z,92121.31
2022-09-09T14:54:23.403Z,92124.34
2022-09-09T14:56:57.430Z,92122.81
2022-09-09T14:59:29.733Z,92136.91
2022-09-09T15:02:04.393Z,92145.66
2022-09-09T15:04:37.345Z,92151.41
2022-09-09T15:07:11.119Z,92146.47
2022-09-09T15:09:43.518Z,92143.78
2022-09-09T15:12:16.219Z,92146.88
2022-09-09T15:14:48.886Z,92151.81
2022-09-09T15:17:21.454Z,92149.91
2022-09-09T15:19:55.277Z,92140.00
2022-09-09T15:22:27.707Z,92134.31
2022-09-09T15:25:00.111Z,92137.72
2022-09-09T15:27:32.456Z,92136.19
2022-09-09T15:30:05.361Z,92130.84
2022-09-09T15:32:38.846Z,92125.16
2022-09-09T15:35:11.815Z,92124.00
2022-09-09T15:37:44.093Z,92125.50
2022-09-09T15:40:16.555Z,92124.75
2022-09-09T15:42:49.394Z,92121.31
2022-09-09T15:45:22.195Z,92120.16
2022-09-09T15:47:54.944Z,92120.94
2022-09-09T15:50:28.739Z,92115.59
2022-09-09T15:53:01.499Z,92119.44
2022-09-09T15:55:33.866Z,92127.81
2022-09-09T15:58:06.157Z,92119.81
2022-09-09T16:00:38.823Z,92122.84
2022-09-09T16:03:12.554Z,92117.53
2022-09-09T16:05:45.743Z,92117.91
2022-09-09T16:08:18.513Z,92113.34
2022-09-09T16:10:50.819Z,92124.38
2022-09-09T16:13:23.083Z,92117.16
2022-09-09T16:15:55.586Z,92118.63
2022-09-09T16:18:34.214Z,92116.34
2022-09-09T16:21:08.343Z,92114.84
2022-09-09T16:23:40.659Z,92122.06
2022-09-09T16:26:14.750Z,92123.59
2022-09-09T16:28:48.002Z,92125.13
2022-09-09T16:31:22.571Z,92127.06
2022-09-09T16:33:55.204Z,92130.84
2022-09-09T16:36:30.639Z,92127.81
2022-09-09T16:39:05.632Z,92131.63
2022-09-09T16:41:39.383Z,92126.66
2022-09-09T16:44:12.990Z,92124.72
2022-09-09T16:46:48.900Z,92129.66
2022-09-09T16:49:21.443Z,92119.78
2022-09-09T16:51:54.427Z,92122.03
2022-09-09T16:54:27.548Z,92119.75
2022-09-09T16:57:00.162Z,92124.69
2022-09-09T16:59:32.425Z,92119.38
2022-09-09T17:02:05.344Z,92121.63
2022-09-09T17:04:37.635Z,92127.72
2022-09-09T17:07:10.719Z,92120.47
2022-09-09T17:09:43.089Z,92116.31
2022-09-09T17:12:16.487Z,92114.78
2022-09-09T17:14:48.758Z,92123.50
2022-09-09T17:17:31.629Z,92121.19
2022-09-09T17:20:07.382Z,92102.50
2022-09-09T17:22:40.376Z,92121.13
2022-09-09T17:25:12.663Z,92121.13
2022-09-09T17:27:44.956Z,92120.34
2022-09-09T17:30:17.470Z,92120.69
2022-09-09T17:32:49.797Z,92127.53
2022-09-09T17:35:22.175Z,92127.09
2022-09-09T17:37:55.178Z,92127.03
2022-09-09T17:40:28.611Z,92131.56
2022-09-09T17:43:01.604Z,92136.13
2022-09-09T17:45:33.918Z,92142.53
2022-09-09T17:48:07.188Z,92144.44
2022-09-09T17:50:39.581Z,92146.31
2022-09-09T17:53:12.560Z,92150.44
2022-09-09T17:55:44.882Z,92143.16
2022-09-09T17:58:17.146Z,92150.31
2022-09-09T18:00:50.048Z,92146.91
2022-09-09T18:03:22.325Z,92150.28
2022-09-09T18:06:00.510Z,92155.56
2022-09-09T18:08:36.705Z,92160.47
2022-09-09T18:11:09.871Z,92162.69
2022-09-09T18:13:42.205Z,92163.00
2022-09-09T18:16:14.490Z,92164.09
2022-09-09T18:18:46.927Z,92177.00
2022-09-09T18:21:19.911Z,92162.56
2022-09-09T18:23:53.488Z,92167.84
2022-09-09T18:26:26.879Z,92163.72
2022-09-09T18:29:01.035Z,92169.38
2022-09-09T18:31:34.627Z,92179.59
2022-09-09T18:34:09.667Z,92176.88
2022-09-09T18:36:44.512Z,92172.69
2022-09-09T18:39:19.255Z,92181.44
2022-09-09T18:41:53.427Z,92178.41
2022-09-09T18:44:28.989Z,92168.38
2022-09-09T18:47:02.603Z,92177.53
2022-09-09T18:49:34.978Z,92178.34
2022-09-09T18:52:10.983Z,92171.88
2022-09-09T18:54:47.418Z,92175.31
2022-09-09T18:57:19.894Z,92169.53
2022-09-09T18:59:54.753Z,92161.75
2022-09-09T19:02:27.126Z,92169.06
2022-09-09T19:04:59.453Z,92156.97
2022-09-09T19:07:31.803Z,92164.91
2022-09-09T19:10:05.828Z,92158.09
2022-09-09T19:12:39.257Z,92161.16
2022-09-09T19:15:11.714Z,92171.78
2022-09-09T19:17:44.027Z,92164.72
2022-09-09T19:20:16.601Z,92161.44
2022-09-09T19:22:49.083Z,92164.50
2022-09-09T19:25:22.215Z,92161.88
2022-09-09T19:27:54.535Z,92157.81
2022-09-09T19:30:26.849Z,92153.59
2022-09-09T19:32:59.229Z,92155.53
2022-09-09T19:35:31.577Z,92158.16
2022-09-09T19:38:03.940Z,92156.22
2022-09-09T19:40:36.956Z,92151.19
2022-09-09T19:43:09.254Z,92151.56
2022-09-09T19:45:41.588Z,92146.50
2022-09-09T19:48:14.629Z,92143.19
2022-09-09T19:50:46.942Z,92137.53
2022-09-09T19:53:19.474Z,92135.19
2022-09-09T19:55:52.682Z,92124.88
2022-09-09T19:58:25.043Z,92119.22
2022-09-09T20:01:05.347Z,92118.06
2022-09-09T20:03:39.290Z,92119.22
2022-09-09T20:06:13.560Z,92123.38
2022-09-09T20:08:48.111Z,92127.16
2022-09-09T20:11:23.076Z,92115.69
2022-09-09T20:14:02.891Z,92119.34
2022-09-09T20:16:35.788Z,92111.44
2022-09-09T20:19:11.122Z,92115.91
2022-09-09T20:21:47.891Z,92111.78
2022-09-09T20:24:22.748Z,92109.88
2022-09-09T20:26:55.775Z,92105.28
2022-09-09T20:29:28.095Z,92107.56
2022-09-09T20:32:00.664Z,92107.56
2022-09-09T20:34:33.041Z,92110.59
2022-09-09T20:37:05.664Z,92112.88
2022-09-09T20:39:38.040Z,92118.59
2022-09-09T20:42:12.059Z,92115.13
2022-09-09T20:44:44.363Z,92117.78
2022-09-09T20:47:16.744Z,92112.47
2022-09-09T20:49:49.162Z,92117.41
2022-09-09T20:52:22.266Z,92121.59
2022-09-09T20:54:55.343Z,92120.84
2022-09-09T20:57:28.346Z,92120.44
2022-09-09T21:00:00.718Z,92116.63
2022-09-09T21:02:33.234Z,92125.31
2022-09-09T21:05:06.754Z,92134.06
2022-09-09T21:07:39.062Z,92131.34
2022-09-09T21:10:11.524Z,92131.25
2022-09-09T21:12:44.498Z,92134.31
2022-09-09T21:15:17.108Z,92129.75
2022-09-09T21:17:49.487Z,92131.53
2022-09-09T21:20:22.004Z,92125.03
2022-09-09T21:22:54.431Z,92127.38
2022-09-09T21:25:26.793Z,92129.56
2022-09-09T21:27:59.806Z,92128.75
2022-09-09T21:30:39.302Z,92130.69
2022-09-09T21:33:14.897Z,92136.38
2022-09-09T21:35:47.286Z,92123.47
2022-09-09T21:38:21.669Z,92126.00
2022-09-09T21:40:54.026Z,92125.25
2022-09-09T21:43:27.095Z,92123.72
2022-09-09T21:46:03.261Z,92118.00
2022-09-09T21:48:35.744Z,92121.78
2022-09-09T21:51:11.212Z,92131.84
2022-09-09T21:53:44.609Z,92126.16
2022-09-09T21:56:18.682Z,92129.09
2022-09-09T21:58:55.722Z,92117.19
2022-09-09T22:01:28.018Z,92128.63
2022-09-09T22:04:00.498Z,92129.38
2022-09-09T22:06:33.128Z,92122.84
2022-09-09T22:09:05.569Z,92123.56
2022-09-09T22:11:37.893Z,92119.75
2022-09-09T22:14:10.878Z,92103.81
2022-09-09T22:16:43.222Z,92114.41
2022-09-09T22:19:15.553Z,92112.09
2022-09-09T22:21:47.893Z,92109.03
2022-09-09T22:24:21.230Z,92102.59
2022-09-09T22:26:54.864Z,92108.28
2022-09-09T22:29:28.455Z,92111.25
2022-09-09T22:32:00.938Z,92100.13
2022-09-09T22:34:34.140Z,92103.94
2022-09-09T22:37:06.899Z,92097.72
2022-09-09T22:39:39.314Z,92102.66
2022-09-09T22:42:11.731Z,92098.50
2022-09-09T22:44:44.727Z,92096.50
2022-09-09T22:47:17.083Z,92097.22
2022-09-09T22:49:49.407Z,92093.00
2022-09-09T22:52:21.727Z,92100.84
2022-09-09T22:54:54.006Z,92096.19
2022-09-09T22:57:26.803Z,92096.69
2022-09-09T23:00:00.502Z,92091.94
2022-09-09T23:02:34.050Z,92095.47
2022-09-09T23:05:08.464Z,92099.88
2022-09-09T23:07:42.363Z,92105.13
2022-09-09T23:10:15.424Z,92106.50
2022-09-09T23:12:48.375Z,92099.34
2022-09-09T23:15:22.419Z,92095.34
2022-09-09T23:17:55.091Z,92090.63
2022-09-09T23:20:27.528Z,92082.91
2022-09-09T23:23:00.239Z,92088.13
2022-09-09T23:25:34.626Z,92078.06
2022-09-09T23:28:06.963Z,92077.78
2022-09-09T23:30:42.168Z,92074.84
2022-09-09T23:33:14.794Z,92065.91
2022-09-09T23:35:47.183Z,92062.63
2022-09-09T23:38:19.502Z,92062.56
2022-09-09T23:40:51.851Z,92053.69
2022-09-09T23:43:25.959Z,92050.34
2022-09-09T23:46:00.254Z,92055.63
2022-09-09T23:48:33.064Z,92047.69
2022-09-09T23:51:06.424Z,92055.19
2022-09-09T23:53:40.248Z,92049.56
2022-09-09T23:56:12.521Z,92041.72
2022-09-09T23:58:44.847Z,92058.84
